Time;durP1;ratioP1;P1;durP2;ratioP2;P2;SDS_P1;SDS_P2;PMS_P1;PMS_P2;Temp;Humidity;BMP_temperature;BMP_pressure;BME280_temperature;BME280_humidity;BME280_pressure;Samples;Min_cycle;Max_cycle;Signal;HPM_P1;HPM_P2
2023/04/05 00:00:56;;;;;;;8.82;2.85;;;;;;;-0.70;63.41;101857.56;6240768;23;20049;-73
2023/04/05 00:03:23;;;;;;;7.70;2.63;;;;;;;-0.72;64.41;101846.22;6242061;23;20040;-72
2023/04/05 00:05:53;;;;;;;9.13;2.78;;;;;;;-0.77;65.52;101852.59;6241650;23;20098;-72
2023/04/05 00:08:22;;;;;;;7.75;3.15;;;;;;;-0.76;66.09;101847.25;6241972;23;20020;-72
2023/04/05 00:10:49;;;;;;;15.23;3.45;;;;;;;-0.80;67.30;101840.41;6216250;23;20493;-72
2023/04/05 00:13:16;;;;;;;9.13;3.15;;;;;;;-0.91;69.76;101846.09;6242205;23;20091;-73
2023/04/05 00:15:43;;;;;;;8.38;3.35;;;;;;;-1.09;73.87;101846.78;6241632;23;20020;-73
2023/04/05 00:18:20;;;;;;;5.63;3.05;;;;;;;-1.00;76.93;101846.41;6240728;23;20024;-72
2023/04/05 00:20:48;;;;;;;9.48;3.58;;;;;;;-1.04;79.80;101850.09;6241620;23;20038;-73
2023/04/05 00:23:16;;;;;;;11.38;3.40;;;;;;;-1.11;82.16;101840.72;6241276;23;20044;-74
2023/04/05 00:25:44;;;;;;;7.97;3.38;;;;;;;-1.17;85.38;101843.56;6241121;23;20059;-73
2023/04/05 00:28:11;;;;;;;11.45;3.72;;;;;;;-1.24;88.77;101842.06;6240833;23;20103;-72
2023/04/05 00:30:38;;;;;;;11.80;3.90;;;;;;;-1.24;91.96;101844.72;6229167;23;20102;-72
2023/04/05 00:33:05;;;;;;;7.03;3.50;;;;;;;-1.25;93.24;101850.91;6239940;23;20028;-73
2023/04/05 00:35:32;;;;;;;8.50;3.70;;;;;;;-1.34;94.25;101840.69;6240707;23;20016;-73
2023/04/05 00:37:58;;;;;;;6.93;3.28;;;;;;;-1.31;96.47;101836.16;6241257;23;20020;-72
2023/04/05 00:40:25;;;;;;;8.20;3.53;;;;;;;-1.33;97.93;101843.28;6240726;23;20024;-72
2023/04/05 00:42:51;;;;;;;10.75;4.05;;;;;;;-1.32;98.89;101838.88;6241218;23;20457;-73
2023/04/05 00:45:18;;;;;;;10.82;3.67;;;;;;;-1.29;98.34;101839.63;6240804;23;20050;-73
2023/04/05 00:47:44;;;;;;;13.32;4.00;;;;;;;-1.26;98.69;101836.03;6240938;23;20040;-73
2023/04/05 00:50:12;;;;;;;11.88;3.67;;;;;;;-1.39;99.77;101832.97;6241154;23;20099;-73
2023/04/05 00:52:42;;;;;;;13.50;4.07;;;;;;;-1.42;100.00;101833.94;6241169;23;20107;-73
2023/04/05 00:55:09;;;;;;;8.23;3.60;;;;;;;-1.42;100.00;101827.81;6240695;23;20468;-73
2023/04/05 00:57:38;;;;;;;11.02;3.78;;;;;;;-1.44;100.00;101827.00;6238902;23;20099;-73
2023/04/05 01:00:08;;;;;;;10.45;3.90;;;;;;;-1.45;100.00;101827.94;6240546;23;20028;-72
2023/04/05 01:02:44;;;;;;;8.88;3.83;;;;;;;-1.50;100.00;101827.25;6240254;23;20020;-71
2023/04/05 01:09:07;;;;;;;11.80;4.10;;;;;;;-1.59;100.00;101817.91;6242692;23;20042;-73
2023/04/05 01:11:36;;;;;;;6.72;3.38;;;;;;;-1.60;100.00;101824.09;6233050;23;20016;-73
2023/04/05 01:14:03;;;;;;;10.45;4.00;;;;;;;-1.63;100.00;101825.03;6240625;23;20024;-73
2023/04/05 01:16:29;;;;;;;7.97;3.88;;;;;;;-1.59;100.00;101817.91;6240002;23;20428;-72
2023/04/05 01:18:57;;;;;;;9.65;3.35;;;;;;;-1.65;100.00;101828.63;6241211;23;20043;-73
2023/04/05 01:21:28;;;;;;;12.73;3.80;;;;;;;-1.65;100.00;101831.25;6240272;23;20016;-73
2023/04/05 01:24:31;;;;;;;8.00;3.67;;;;;;;-1.69;100.00;101829.66;6226758;23;20086;-73
2023/04/05 01:27:18;;;;;;;16.55;3.55;;;;;;;-1.74;100.00;101824.56;6213625;23;20020;-73
2023/04/05 01:30:03;;;;;;;9.35;3.78;;;;;;;-1.79;100.00;101830.88;6241293;23;20402;-73
2023/04/05 01:32:49;;;;;;;7.75;3.45;;;;;;;-1.77;100.00;101816.78;6239899;23;20020;-72
2023/04/05 01:35:17;;;;;;;7.97;3.50;;;;;;;-1.80;100.00;101823.91;6239363;23;20055;-71
2023/04/05 01:37:51;;;;;;;8.50;3.35;;;;;;;-1.90;100.00;101823.38;6240337;23;20024;-73
2023/04/05 01:40:19;;;;;;;11.40;3.40;;;;;;;-1.92;100.00;101828.69;6240191;23;20024;-72
2023/04/05 01:42:45;;;;;;;6.47;3.20;;;;;;;-1.92;100.00;101820.81;6239521;23;20071;-73
2023/04/05 01:45:12;;;;;;;7.53;3.53;;;;;;;-1.95;100.00;101820.06;6237943;23;20024;-71
2023/04/05 01:47:38;;;;;;;5.70;3.10;;;;;;;-1.96;100.00;101818.31;6240164;23;20024;-71
2023/04/05 01:50:06;;;;;;;13.73;3.63;;;;;;;-2.05;100.00;101814.25;6240449;23;20341;-71
2023/04/05 01:52:32;;;;;;;8.85;3.72;;;;;;;-2.04;100.00;101810.69;6239778;23;20016;-71
2023/04/05 01:54:59;;;;;;;8.30;3.58;;;;;;;-1.96;100.00;101810.44;6243244;22;20020;-72
2023/04/05 01:57:25;;;;;;;10.90;3.35;;;;;;;-2.01;100.00;101815.84;6268977;22;20056;-69
2023/04/05 01:59:52;;;;;;;12.43;3.50;;;;;;;-2.17;100.00;101810.25;6267218;22;20023;-70
2023/04/05 02:02:18;;;;;;;7.57;3.67;;;;;;;-2.18;100.00;101805.91;6268711;22;20060;-70
2023/04/05 02:04:45;;;;;;;7.60;2.97;;;;;;;-2.20;100.00;101806.84;6269446;22;20008;-67
2023/04/05 02:07:11;;;;;;;7.70;3.00;;;;;;;-2.26;100.00;101807.09;6267694;22;20028;-68
2023/04/05 02:09:37;;;;;;;11.05;3.25;;;;;;;-2.21;100.00;101802.53;6269555;22;20007;-70
2023/04/05 02:12:04;;;;;;;6.05;2.80;;;;;;;-2.22;100.00;101804.31;6270123;22;20019;-69
2023/04/05 02:14:31;;;;;;;8.30;3.47;;;;;;;-2.25;100.00;101799.13;6268673;22;20028;-70
2023/04/05 02:16:57;;;;;;;8.90;3.50;;;;;;;-2.11;100.00;101806.56;6268952;22;20000;-68
2023/04/05 02:19:24;;;;;;;12.30;3.38;;;;;;;-2.08;100.00;101806.47;6270390;22;20032;-70
2023/04/05 02:21:54;;;;;;;7.28;2.78;;;;;;;-2.06;100.00;101802.03;6269081;22;20012;-68
2023/04/05 02:24:21;;;;;;;12.00;3.60;;;;;;;-2.15;100.00;101804.94;6268115;22;20004;-70
2023/04/05 02:26:47;;;;;;;7.00;3.10;;;;;;;-2.19;100.00;101803.34;6271532;22;20038;-69
2023/04/05 02:29:14;;;;;;;9.88;3.60;;;;;;;-2.13;100.00;101793.47;6265246;22;20024;-70
2023/04/05 02:31:40;;;;;;;5.53;3.00;;;;;;;-2.11;100.00;101796.03;6259428;23;20039;-69
2023/04/05 02:34:10;;;;;;;11.93;4.20;;;;;;;-2.08;100.00;101805.59;6260362;23;20020;-70
2023/04/05 02:36:36;;;;;;;9.50;4.20;;;;;;;-2.16;100.00;101790.97;6259613;23;20040;-70
2023/04/05 02:39:03;;;;;;;8.13;3.97;;;;;;;-2.11;100.00;101791.63;6258549;23;20072;-71
2023/04/05 02:41:30;;;;;;;11.27;4.70;;;;;;;-2.19;100.00;101791.06;6260984;23;20024;-71
2023/04/05 02:43:57;;;;;;;10.70;4.00;;;;;;;-2.18;100.00;101789.28;6262683;23;20024;-71
2023/04/05 02:46:24;;;;;;;12.82;3.85;;;;;;;-2.21;100.00;101789.38;6261068;23;20467;-70
2023/04/05 02:48:51;;;;;;;9.68;4.50;;;;;;;-2.10;100.00;101796.00;6261817;23;20044;-71
2023/04/05 02:51:17;;;;;;;9.98;4.03;;;;;;;-2.11;100.00;101790.78;6261652;23;20029;-69
2023/04/05 02:53:44;;;;;;;9.98;4.30;;;;;;;-2.15;100.00;101791.81;6260260;23;20099;-71
2023/04/05 02:56:12;;;;;;;11.40;4.85;;;;;;;-2.17;100.00;101786.59;6260304;23;20023;-71
2023/04/05 02:58:39;;;;;;;12.98;4.28;;;;;;;-2.19;100.00;101785.78;6259487;23;20493;-71
2023/04/05 03:01:07;;;;;;;8.93;3.85;;;;;;;-2.25;100.00;101783.38;6258833;23;20031;-70
2023/04/05 03:03:34;;;;;;;13.38;4.10;;;;;;;-2.13;100.00;101784.72;6259396;23;20422;-71
2023/04/05 03:06:09;;;;;;;11.52;4.15;;;;;;;-2.03;100.00;101787.88;6258498;23;20020;-70
2023/04/05 03:08:45;;;;;;;10.13;4.55;;;;;;;-2.00;100.00;101788.63;6259670;23;20024;-70
2023/04/05 03:11:11;;;;;;;13.50;4.47;;;;;;;-1.88;100.00;101788.22;6259804;23;20051;-69
2023/04/05 03:13:38;;;;;;;12.70;4.50;;;;;;;-1.92;100.00;101780.50;6260206;23;20031;-72
2023/04/05 03:16:05;;;;;;;10.75;4.47;;;;;;;-1.84;100.00;101777.59;6258765;23;20043;-70
2023/04/05 03:18:32;;;;;;;12.07;3.88;;;;;;;-2.04;100.00;101778.28;6259228;23;20026;-71
2023/04/05 03:20:58;;;;;;;11.35;4.40;;;;;;;-2.17;100.00;101770.81;6258423;23;20050;-70
2023/04/05 03:23:27;;;;;;;11.20;4.10;;;;;;;-2.14;100.00;101769.84;6261581;23;20041;-70
2023/04/05 03:26:03;;;;;;;10.35;4.60;;;;;;;-2.02;100.00;101756.31;6260891;23;20064;-70
2023/04/05 03:28:33;;;;;;;8.52;3.72;;;;;;;-1.94;100.00;101762.13;6259682;23;20016;-72
2023/04/05 03:31:00;;;;;;;10.80;4.10;;;;;;;-1.96;100.00;101763.09;6252565;23;20047;-70
2023/04/05 03:33:26;;;;;;;11.18;4.30;;;;;;;-1.98;100.00;101754.41;6255898;23;20047;-70
2023/04/05 03:35:53;;;;;;;12.48;4.28;;;;;;;-1.90;100.00;101758.47;6258832;23;20074;-70
2023/04/05 03:38:20;;;;;;;9.85;4.32;;;;;;;-1.88;100.00;101756.66;6261352;22;20016;-69
2023/04/05 03:40:46;;;;;;;8.90;3.80;;;;;;;-1.89;100.00;101751.44;6244790;22;20000;-70
2023/04/05 03:43:13;;;;;;;9.35;3.75;;;;;;;-1.87;100.00;101752.25;6255985;22;20060;-69
2023/04/05 03:45:39;;;;;;;11.52;3.92;;;;;;;-1.89;100.00;101760.22;6270299;22;20019;-70
2023/04/05 03:48:06;;;;;;;10.82;4.22;;;;;;;-2.01;100.00;101755.38;6270835;22;20041;-70
2023/04/05 03:50:33;;;;;;;12.13;3.92;;;;;;;-2.05;100.00;101761.66;6245013;22;20048;-71
2023/04/05 03:53:00;;;;;;;9.35;3.38;;;;;;;-2.02;100.00;101760.69;6243904;22;20020;-71
2023/04/05 03:55:26;;;;;;;11.88;4.05;;;;;;;-1.99;100.00;101766.72;6271624;22;20028;-69
2023/04/05 03:57:53;;;;;;;12.52;4.18;;;;;;;-1.99;100.00;101769.34;6266868;22;20000;-69
2023/04/05 04:00:23;;;;;;;11.50;4.10;;;;;;;-1.97;100.00;101764.88;6270084;22;20015;-69
2023/04/05 04:02:51;;;;;;;13.10;3.40;;;;;;;-1.96;100.00;101752.56;6271351;22;20047;-69
2023/04/05 04:05:18;;;;;;;10.48;3.33;;;;;;;-1.91;100.00;101755.91;6269765;22;20035;-69
2023/04/05 04:07:46;;;;;;;11.65;3.70;;;;;;;-1.82;100.00;101758.19;6269944;22;20012;-69
2023/04/05 04:10:16;;;;;;;8.38;3.92;;;;;;;-1.83;100.00;101760.91;6269262;22;20000;-69
2023/04/05 04:12:43;;;;;;;9.23;4.07;;;;;;;-1.80;100.00;101755.53;6269622;22;20001;-70
2023/04/05 04:15:10;;;;;;;14.45;3.80;;;;;;;-1.87;100.00;101758.38;6241240;22;20015;-71
2023/04/05 04:17:37;;;;;;;9.63;3.75;;;;;;;-1.77;100.00;101760.69;6269618;22;20051;-71
2023/04/05 04:20:09;;;;;;;10.45;3.58;;;;;;;-1.83;100.00;101756.50;6271424;22;20105;-71
2023/04/05 04:22:37;;;;;;;8.45;3.90;;;;;;;-1.81;100.00;101759.09;6270006;22;20024;-71
2023/04/05 04:25:11;;;;;;;13.77;3.65;;;;;;;-1.80;100.00;101755.53;6269126;22;20011;-70
2023/04/05 04:27:43;;;;;;;12.02;3.53;;;;;;;-1.77;100.00;101755.41;6269777;22;20000;-71
2023/04/05 04:32:54;;;;;;;15.57;3.65;;;;;;;-1.72;100.00;101756.09;6263240;22;20000;-70
2023/04/05 04:35:23;;;;;;;13.10;3.80;;;;;;;-1.82;100.00;101749.44;6271514;23;20008;-71
2023/04/05 04:37:58;;;;;;;21.70;5.63;;;;;;;-1.79;100.00;101758.09;6271594;23;20019;-71
2023/04/05 04:40:31;;;;;;;22.25;5.95;;;;;;;-1.84;100.00;101756.56;6271201;23;20035;-72
2023/04/05 04:42:58;;;;;;;14.23;5.35;;;;;;;-1.84;100.00;101756.56;6271252;23;20034;-72
2023/04/05 04:45:25;;;;;;;10.25;3.50;;;;;;;-1.83;100.00;101756.50;6271473;23;20032;-72
2023/04/05 04:47:52;;;;;;;11.95;4.45;;;;;;;-1.72;100.00;101759.59;6270750;23;20004;-72
2023/04/05 04:50:19;;;;;;;19.88;4.22;;;;;;;-1.70;100.00;101757.78;6272027;23;20016;-72
2023/04/05 04:52:46;;;;;;;10.40;3.53;;;;;;;-1.79;100.00;101754.59;6270981;23;20019;-71
2023/04/05 04:55:13;;;;;;;10.48;3.50;;;;;;;-1.78;100.00;101759.84;6269792;22;20014;-70
2023/04/05 04:57:41;;;;;;;35.10;4.82;;;;;;;-1.80;100.00;101758.16;6270576;22;20000;-69
2023/04/05 05:00:13;;;;;;;17.95;4.50;;;;;;;-1.72;100.00;101758.72;6270043;22;20004;-70
2023/04/05 05:02:42;;;;;;;11.13;3.60;;;;;;;-1.65;100.00;101753.19;6269390;22;20027;-69
2023/04/05 05:05:10;;;;;;;15.95;3.58;;;;;;;-1.71;100.00;101752.56;6256914;22;20019;-71
2023/04/05 05:07:37;;;;;;;11.32;3.97;;;;;;;-1.72;100.00;101751.69;6268812;22;20012;-70
2023/04/05 05:10:05;;;;;;;8.57;3.60;;;;;;;-1.64;100.00;101749.66;6269823;22;20024;-71
2023/04/05 05:12:31;;;;;;;10.55;4.05;;;;;;;-1.62;100.00;101758.34;6270403;22;20004;-71
2023/04/05 05:14:58;;;;;;;12.02;3.70;;;;;;;-1.55;100.00;101758.13;6268918;22;20019;-69
2023/04/05 05:17:24;;;;;;;15.57;4.30;;;;;;;-1.54;100.00;101758.06;6231611;22;20036;-70
2023/04/05 05:19:51;;;;;;;17.13;4.10;;;;;;;-1.54;100.00;101754.56;6267710;22;20028;-70
2023/04/05 05:22:20;;;;;;;13.85;4.13;;;;;;;-1.38;100.00;101760.97;6254498;22;20018;-70
2023/04/05 05:24:47;;;;;;;15.10;3.78;;;;;;;-1.39;100.00;101760.13;6268648;22;20035;-70
2023/04/05 05:27:13;;;;;;;13.52;3.85;;;;;;;-1.39;100.00;101754.84;6268239;22;20004;-71
2023/04/05 05:29:40;;;;;;;12.07;3.35;;;;;;;-1.34;100.00;101757.31;6254624;22;20008;-71
2023/04/05 05:32:08;;;;;;;10.75;2.88;;;;;;;-1.24;100.00;101757.81;6267874;22;20060;-71
2023/04/05 05:34:35;;;;;;;14.75;3.88;;;;;;;-1.18;100.00;101762.84;6270391;22;20024;-71
2023/04/05 05:37:02;;;;;;;16.23;3.88;;;;;;;-1.18;100.00;101750.53;6262058;22;20008;-71
2023/04/05 05:39:28;;;;;;;24.23;4.63;;;;;;;-1.09;100.00;101751.97;6260230;22;20027;-71
2023/04/05 05:41:55;;;;;;;27.42;4.55;;;;;;;-1.09;100.00;101754.63;6265820;22;20048;-70
2023/04/05 05:44:21;;;;;;;21.52;4.07;;;;;;;-0.93;100.00;101747.81;6268137;22;20020;-71
2023/04/05 05:46:48;;;;;;;9.32;2.90;;;;;;;-1.10;100.00;101746.75;6268452;22;20004;-70
2023/04/05 05:49:16;;;;;;;11.80;3.67;;;;;;;-1.15;100.00;101746.94;6266207;22;20009;-69
2023/04/05 05:51:43;;;;;;;18.08;4.05;;;;;;;-0.96;100.00;101742.66;6265405;22;20015;-69
2023/04/05 05:54:09;;;;;;;12.77;3.85;;;;;;;-1.01;100.00;101743.78;6267004;22;20011;-70
2023/04/05 05:56:35;;;;;;;19.63;4.60;;;;;;;-0.87;100.00;101746.72;6269228;22;20008;-70
2023/04/05 05:59:02;;;;;;;10.93;3.83;;;;;;;-0.76;100.00;101746.28;6269922;22;20011;-70
2023/04/05 06:01:29;;;;;;;13.38;3.95;;;;;;;-0.69;100.00;101751.22;6270226;22;20045;-70
2023/04/05 06:03:55;;;;;;;11.93;3.83;;;;;;;-0.73;100.00;101749.66;6269662;22;20020;-72
2023/04/05 06:06:22;;;;;;;9.35;3.25;;;;;;;-0.69;100.00;101751.22;6269749;22;20016;-72
2023/04/05 06:08:48;;;;;;;17.05;3.85;;;;;;;-0.66;100.00;101739.72;6269332;22;20012;-71
2023/04/05 06:11:17;;;;;;;12.43;3.78;;;;;;;-0.48;97.19;101735.44;6254999;22;20011;-71
2023/04/05 06:13:43;;;;;;;14.52;4.20;;;;;;;-0.38;96.86;101738.56;6245555;22;20031;-71
2023/04/05 06:16:10;;;;;;;13.57;3.65;;;;;;;-0.40;94.95;101743.03;6270163;22;20060;-71
2023/04/05 06:18:36;;;;;;;12.43;3.70;;;;;;;-0.48;95.16;101736.31;6270506;22;20004;-71
2023/04/05 06:21:03;;;;;;;16.85;3.40;;;;;;;-0.36;94.89;101736.72;6270060;22;20008;-70
2023/04/05 06:23:29;;;;;;;12.93;3.47;;;;;;;-0.17;91.30;101737.66;6262292;22;20196;-72
2023/04/05 06:25:56;;;;;;;12.20;3.63;;;;;;;0.05;88.54;101730.53;6269000;22;20000;-72
2023/04/05 06:28:22;;;;;;;14.88;3.65;;;;;;;0.22;87.60;101728.91;6267764;22;20015;-72
2023/04/05 06:30:49;;;;;;;9.20;3.47;;;;;;;0.32;86.37;101730.22;6268559;22;20019;-69
2023/04/05 06:33:15;;;;;;;10.95;3.13;;;;;;;0.22;84.77;101735.03;6268380;22;20005;-72
2023/04/05 06:35:42;;;;;;;12.35;3.90;;;;;;;0.28;84.99;101739.19;6267618;22;20011;-72
2023/04/05 06:38:08;;;;;;;14.55;4.07;;;;;;;0.21;86.54;101740.41;6269819;22;20004;-70
2023/04/05 06:40:35;;;;;;;18.00;4.20;;;;;;;0.48;84.22;101738.28;6267193;22;20004;-72
2023/04/05 06:43:02;;;;;;;14.27;4.57;;;;;;;0.61;82.01;101735.97;6269077;22;20019;-72
2023/04/05 06:45:28;;;;;;;10.88;3.88;;;;;;;0.59;82.06;101737.81;6268008;22;20064;-72
2023/04/05 06:47:55;;;;;;;20.02;4.20;;;;;;;0.55;82.12;101746.78;6269033;22;20004;-71
2023/04/05 06:50:21;;;;;;;15.73;4.38;;;;;;;0.88;80.67;101752.28;6269351;22;20059;-71
2023/04/05 06:52:48;;;;;;;15.88;3.45;;;;;;;0.85;80.13;101747.13;6268631;22;20020;-71
2023/04/05 06:55:15;;;;;;;11.70;3.45;;;;;;;0.82;79.24;101747.31;6269194;22;20016;-71
2023/04/05 06:57:41;;;;;;;9.55;3.15;;;;;;;0.79;78.34;101748.28;6256041;22;20036;-74
2023/04/05 07:00:11;;;;;;;13.70;4.13;;;;;;;0.66;77.15;101755.94;6242221;22;20044;-74
2023/04/05 07:02:38;;;;;;;10.15;3.45;;;;;;;0.61;78.93;101746.53;6240723;23;20022;-74
2023/04/05 07:05:05;;;;;;;13.93;3.75;;;;;;;0.97;77.01;101754.50;6240420;23;20325;-73
2023/04/05 07:07:32;;;;;;;16.67;4.45;;;;;;;0.96;78.16;101744.88;6240458;23;20116;-74
2023/04/05 07:09:58;;;;;;;11.75;4.53;;;;;;;0.96;80.29;101745.72;6240054;23;20031;-73
2023/04/05 07:12:25;;;;;;;20.60;3.92;;;;;;;0.97;79.82;101750.06;6241106;23;20364;-73
2023/04/05 07:14:51;;;;;;;13.32;4.53;;;;;;;0.86;81.31;101748.88;6239870;23;20023;-73
2023/04/05 07:17:18;;;;;;;19.25;3.90;;;;;;;1.05;81.28;101743.56;6240752;23;20412;-73
2023/04/05 07:19:45;;;;;;;14.68;3.58;;;;;;;1.08;81.95;101743.41;6241782;23;20026;-73
2023/04/05 07:22:11;;;;;;;11.63;4.53;;;;;;;1.19;81.03;101738.44;6241424;23;20024;-73
2023/04/05 07:24:38;;;;;;;19.50;5.18;;;;;;;1.31;81.08;101740.50;6242494;23;20020;-74
2023/04/05 07:27:04;;;;;;;13.85;3.90;;;;;;;1.37;82.22;101737.56;6242756;23;20032;-73
2023/04/05 07:29:31;;;;;;;15.07;6.60;;;;;;;1.71;80.50;101731.44;6241157;22;21441;-74
2023/04/05 07:31:57;;;;;;;15.27;5.20;;;;;;;1.74;81.20;101735.69;6241824;23;20106;-74
2023/04/05 07:34:24;;;;;;;25.45;5.70;;;;;;;1.57;84.39;101727.78;6241315;23;20023;-74
2023/04/05 07:36:50;;;;;;;16.70;5.85;;;;;;;1.80;85.29;101719.53;6241394;23;20026;-73
2023/04/05 07:39:18;;;;;;;16.75;5.63;;;;;;;1.89;83.42;101721.72;6241556;23;20052;-73
2023/04/05 07:41:45;;;;;;;16.17;5.70;;;;;;;2.12;81.28;101717.00;6241662;23;20414;-73
2023/04/05 07:44:11;;;;;;;12.65;5.22;;;;;;;2.22;81.30;101712.94;6244280;23;20028;-74
2023/04/05 07:46:43;;;;;;;18.30;5.25;;;;;;;2.77;78.28;101712.59;6242141;23;20103;-73
2023/04/05 07:49:10;;;;;;;14.05;5.90;;;;;;;3.12;74.00;101717.69;6240805;23;20095;-73
2023/04/05 07:51:37;;;;;;;14.20;6.28;;;;;;;3.20;71.94;101728.72;6234554;23;20027;-74
2023/04/05 07:54:05;;;;;;;13.18;5.13;;;;;;;2.89;74.43;101722.50;6240821;23;20060;-74
2023/04/05 07:56:32;;;;;;;13.73;5.80;;;;;;;2.70;78.05;101732.41;6241513;23;20497;-74
2023/04/05 07:58:58;;;;;;;15.10;6.00;;;;;;;3.21;76.99;101729.59;6270221;22;20008;-72
2023/04/05 08:01:28;;;;;;;14.40;5.32;;;;;;;3.95;72.93;101728.75;6269493;22;20030;-72
2023/04/05 08:03:57;;;;;;;22.00;5.93;;;;;;;4.40;69.92;101732.25;6270008;22;20015;-71
2023/04/05 08:06:26;;;;;;;12.48;5.10;;;;;;;4.19;67.09;101734.38;6270754;22;20008;-72
2023/04/05 08:08:52;;;;;;;14.73;5.55;;;;;;;4.51;67.18;101729.75;6268887;22;20043;-73
2023/04/05 08:11:20;;;;;;;13.07;5.30;;;;;;;5.40;68.00;101729.34;6269693;22;20024;-72
2023/04/05 08:13:47;;;;;;;21.95;7.18;;;;;;;6.04;63.61;101727.63;6268709;22;20004;-72
2023/04/05 08:16:13;;;;;;;11.88;5.57;;;;;;;6.92;59.93;101725.84;6268721;22;20008;-72
2023/04/05 08:18:40;;;;;;;16.73;5.63;;;;;;;7.16;57.37;101728.53;6270246;22;20024;-71
2023/04/05 08:21:06;;;;;;;20.67;6.28;;;;;;;6.82;56.91;101716.78;6270288;22;20012;-71
2023/04/05 08:23:33;;;;;;;16.25;5.60;;;;;;;6.81;56.72;101717.78;6269726;22;20020;-73
2023/04/05 08:26:00;;;;;;;13.57;6.35;;;;;;;7.28;55.86;101721.41;6269472;22;20000;-73
2023/04/05 08:28:27;;;;;;;15.20;6.65;;;;;;;6.89;55.93;101720.72;6269344;22;20023;-73
2023/04/05 08:30:54;;;;;;;16.95;6.15;;;;;;;6.52;56.65;101722.50;6269518;22;20031;-72
2023/04/05 08:33:21;;;;;;;14.68;6.50;;;;;;;6.83;57.32;101722.97;6269773;22;20004;-72
2023/04/05 08:35:47;;;;;;;12.13;6.00;;;;;;;6.29;58.58;101724.16;6269334;22;20024;-73
2023/04/05 08:38:14;;;;;;;17.95;7.55;;;;;;;6.66;57.39;101721.53;6268860;22;20008;-71
2023/04/05 08:40:42;;;;;;;19.83;6.47;;;;;;;7.00;56.01;101713.75;6270635;22;20011;-72
2023/04/05 08:43:32;;;;;;;20.73;7.53;;;;;;;7.18;56.11;101710.56;6229802;22;20027;-72
2023/04/05 08:46:00;;;;;;;16.05;6.72;;;;;;;7.27;55.71;101706.38;6269217;22;20046;-70
2023/04/05 08:48:31;;;;;;;14.13;6.50;;;;;;;7.03;55.28;101711.69;6267692;22;20050;-72
2023/04/05 08:50:57;;;;;;;15.70;6.45;;;;;;;7.15;55.52;101709.94;6269677;22;20027;-71
2023/04/05 08:53:24;;;;;;;12.82;6.43;;;;;;;6.59;55.30;101710.44;6268460;22;20004;-73
2023/04/05 08:55:54;;;;;;;18.25;6.38;;;;;;;7.11;54.65;101709.31;6268380;23;20036;-73
2023/04/05 08:58:22;;;;;;;12.52;6.03;;;;;;;7.15;54.67;101712.59;6269076;23;20035;-73
2023/04/05 09:00:50;;;;;;;15.00;5.65;;;;;;;7.66;52.37;101702.50;6269077;22;20020;-73
2023/04/05 09:03:22;;;;;;;12.57;5.40;;;;;;;7.87;51.30;101696.50;6269045;22;20016;-73
2023/04/05 09:05:50;;;;;;;14.88;5.60;;;;;;;7.06;52.93;101706.16;6267815;23;20054;-72
2023/04/05 09:08:17;;;;;;;10.80;5.30;;;;;;;7.71;52.16;101710.16;6268359;23;20020;-70
2023/04/05 09:10:44;;;;;;;11.90;5.45;;;;;;;7.26;51.80;101701.16;6267898;23;20020;-69
2023/04/05 09:13:10;;;;;;;10.00;5.25;;;;;;;7.85;51.12;101693.97;6268134;23;20020;-72
2023/04/05 09:15:38;;;;;;;15.77;6.05;;;;;;;8.20;50.48;101697.53;6268022;23;20047;-72
2023/04/05 09:18:04;;;;;;;13.75;5.55;;;;;;;8.36;49.97;101698.88;6266357;22;20059;-70
2023/04/05 09:20:48;;;;;;;20.17;6.50;;;;;;;8.92;48.13;101695.28;6265541;23;20024;-70
2023/04/05 09:23:15;;;;;;;13.70;5.70;;;;;;;9.66;46.67;101699.88;6260596;23;20031;-73
2023/04/05 09:25:42;;;;;;;19.90;6.22;;;;;;;9.75;45.74;101699.06;6266883;23;20064;-72
2023/04/05 09:28:09;;;;;;;11.40;5.60;;;;;;;10.03;45.14;101694.88;6265507;22;20510;-72
2023/04/05 09:30:36;;;;;;;13.73;5.32;;;;;;;9.14;45.91;101691.66;6264320;23;20095;-70
2023/04/05 09:33:06;;;;;;;10.75;5.45;;;;;;;8.33;47.37;101699.13;6265055;23;20035;-71
2023/04/05 09:35:35;;;;;;;8.88;4.45;;;;;;;7.35;48.87;101698.63;6266800;23;20036;-70
2023/04/05 09:38:04;;;;;;;9.85;4.57;;;;;;;7.70;47.75;101694.25;6266439;23;20059;-72
2023/04/05 09:40:45;;;;;;;7.85;4.88;;;;;;;8.43;47.45;101695.69;6267818;23;20405;-71
2023/04/05 09:43:13;;;;;;;13.35;5.40;;;;;;;8.84;45.86;101689.66;6268563;23;20075;-71
2023/04/05 09:45:41;;;;;;;11.80;5.07;;;;;;;8.10;47.02;101692.91;6266788;23;20075;-71
2023/04/05 09:48:09;;;;;;;12.98;5.68;;;;;;;8.41;46.34;101695.81;6267849;23;20024;-71
2023/04/05 09:50:35;;;;;;;20.23;5.43;;;;;;;8.68;45.81;101686.53;6268706;23;21021;-71
2023/04/05 09:53:14;;;;;;;12.07;4.90;;;;;;;8.26;46.34;101692.56;6267614;22;20027;-72
2023/04/05 09:55:42;;;;;;;16.63;5.97;;;;;;;7.59;47.92;101682.56;6266080;22;20032;-71
2023/04/05 09:58:12;;;;;;;14.60;5.40;;;;;;;7.10;49.38;101678.25;6267862;23;20047;-71
2023/04/05 10:00:51;;;;;;;12.02;6.65;;;;;;;7.39;48.67;101678.72;6266532;22;20008;-72
2023/04/05 10:03:26;;;;;;;12.93;5.00;;;;;;;8.48;47.11;101670.28;6266826;23;20016;-73
2023/04/05 10:05:55;;;;;;;10.95;5.35;;;;;;;8.02;46.21;101681.97;6257445;23;20016;-73
2023/04/05 10:08:23;;;;;;;12.13;5.25;;;;;;;7.27;47.29;101677.00;6268008;23;20022;-71
2023/04/05 10:10:53;;;;;;;10.60;5.65;;;;;;;6.62;49.21;101678.22;6268824;22;20023;-73
2023/04/05 10:13:19;;;;;;;10.80;4.85;;;;;;;6.24;49.76;101680.94;6267836;22;20031;-72
2023/04/05 10:15:53;;;;;;;9.60;4.78;;;;;;;6.53;50.67;101675.38;6257657;22;20039;-72
2023/04/05 10:18:37;;;;;;;10.57;4.57;;;;;;;6.61;51.03;101673.03;6268421;23;20039;-70
2023/04/05 10:21:05;;;;;;;8.23;4.43;;;;;;;6.67;50.12;101672.59;6266720;23;20032;-72
2023/04/05 10:23:33;;;;;;;9.23;4.43;;;;;;;6.91;49.60;101677.91;6267108;22;20004;-70
2023/04/05 10:26:09;;;;;;;11.05;3.80;;;;;;;6.64;49.13;101676.31;6267863;23;20024;-71
2023/04/05 10:28:39;;;;;;;9.10;4.10;;;;;;;6.20;49.24;101674.97;6267326;22;20043;-71
2023/04/05 10:31:27;;;;;;;11.20;5.03;;;;;;;6.12;49.76;101679.16;6267581;22;20047;-71
2023/04/05 10:34:12;;;;;;;13.00;4.53;;;;;;;5.57;51.53;101670.50;6267052;23;20008;-71
2023/04/05 10:36:49;;;;;;;17.58;4.57;;;;;;;6.06;51.16;101672.44;6267373;22;20024;-70
2023/04/05 10:39:20;;;;;;;7.55;4.15;;;;;;;6.18;50.40;101668.94;6266615;22;20020;-71
2023/04/05 10:41:51;;;;;;;10.07;3.60;;;;;;;5.68;51.07;101667.97;6268416;22;20024;-71
2023/04/05 10:44:18;;;;;;;14.80;4.57;;;;;;;5.57;51.50;101670.50;6268236;22;20024;-71
2023/04/05 10:46:53;;;;;;;8.60;4.07;;;;;;;5.55;51.71;101667.09;6270210;22;20059;-73
2023/04/05 10:49:35;;;;;;;11.10;4.65;;;;;;;5.27;51.72;101662.78;6268687;22;20027;-73
2023/04/05 10:52:03;;;;;;;12.43;4.72;;;;;;;5.12;52.61;101659.34;6270976;22;20032;-72
2023/04/05 10:54:35;;;;;;;12.70;4.55;;;;;;;5.10;52.83;101660.38;6271078;22;20016;-73
2023/04/05 10:57:05;;;;;;;11.57;4.97;;;;;;;4.98;53.63;101667.38;6270105;23;20024;-73
2023/04/05 10:59:40;;;;;;;12.52;4.60;;;;;;;4.81;53.98;101661.34;6270980;22;20077;-72
2023/04/05 11:02:08;;;;;;;8.52;4.05;;;;;;;4.56;53.57;101666.56;6270054;22;20085;-70
2023/04/05 11:04:34;;;;;;;10.45;4.13;;;;;;;4.48;54.02;101655.53;6270814;22;20072;-71
2023/04/05 11:07:14;;;;;;;7.95;4.30;;;;;;;4.27;55.03;101658.56;6270175;22;20058;-72
2023/04/05 11:09:59;;;;;;;9.40;4.28;;;;;;;4.36;56.00;101661.63;6271153;22;20016;-71
2023/04/05 11:12:45;;;;;;;11.75;4.85;;;;;;;4.59;54.75;101661.06;6257201;22;20046;-74
2023/04/05 11:15:27;;;;;;;10.90;4.38;;;;;;;4.40;55.44;101660.50;6271490;22;20040;-72
2023/04/05 11:18:16;;;;;;;11.75;4.75;;;;;;;4.41;55.90;101660.38;6266932;22;20016;-73
2023/04/05 11:20:47;;;;;;;11.50;4.25;;;;;;;4.21;56.27;101658.97;6259750;22;20023;-71
2023/04/05 11:23:16;;;;;;;16.52;4.15;;;;;;;4.24;56.13;101655.25;6271876;22;20047;-72
2023/04/05 11:25:46;;;;;;;8.77;4.30;;;;;;;3.97;56.92;101663.16;6271597;22;20030;-71
2023/04/05 11:28:30;;;;;;;10.03;4.50;;;;;;;4.02;57.51;101663.72;6269023;22;20019;-74
2023/04/05 11:31:11;;;;;;;11.30;4.43;;;;;;;4.15;57.73;101662.00;6240593;23;20020;-73
2023/04/05 11:33:53;;;;;;;10.88;4.07;;;;;;;4.05;58.18;101660.88;6240979;23;20058;-74